createdAt,value
2018-09-14T00:02:06.233Z,31.30
2018-09-14T00:04:38.564Z,31.70
2018-09-14T00:07:10.912Z,31.03
2018-09-14T00:09:43.204Z,32.87
2018-09-14T00:12:15.579Z,35.03
2018-09-14T00:14:47.888Z,31.50
2018-09-14T00:17:20.197Z,33.87
2018-09-14T00:19:52.503Z,32.67
2018-09-14T00:22:24.847Z,31.23
2018-09-14T00:24:57.160Z,33.00
2018-09-14T00:27:29.516Z,31.20
2018-09-14T00:30:01.820Z,30.60
2018-09-14T00:32:34.136Z,29.87
2018-09-14T00:35:06.512Z,33.37
2018-09-14T00:37:38.831Z,31.07
2018-09-14T00:40:11.145Z,29.67
2018-09-14T00:42:43.467Z,30.73
2018-09-14T00:45:15.767Z,31.57
2018-09-14T00:47:48.079Z,30.17
2018-09-14T00:50:20.388Z,30.23
2018-09-14T00:52:52.707Z,29.17
2018-09-14T00:55:25.023Z,28.33
2018-09-14T00:57:57.340Z,29.97
2018-09-14T01:00:29.644Z,34.07
2018-09-14T01:03:01.970Z,28.10
2018-09-14T01:05:34.576Z,30.77
2018-09-14T01:08:06.904Z,29.83
2018-09-14T01:10:39.215Z,29.00
2018-09-14T01:13:11.537Z,27.63
2018-09-14T01:15:43.843Z,29.60
2018-09-14T01:18:16.230Z,33.00
2018-09-14T01:20:48.524Z,32.70
2018-09-14T01:23:20.853Z,29.43
2018-09-14T01:25:53.158Z,29.13
2018-09-14T01:28:25.488Z,33.87
2018-09-14T01:30:57.803Z,32.60
2018-09-14T01:33:30.120Z,27.93
2018-09-14T01:36:02.435Z,34.20
2018-09-14T01:38:34.763Z,30.60
2018-09-14T01:41:07.091Z,27.43
2018-09-14T01:43:39.416Z,32.80
2018-09-14T01:46:11.824Z,29.73
2018-09-14T01:48:44.163Z,30.57
2018-09-14T01:51:16.479Z,30.23
2018-09-14T01:53:48.800Z,33.80
2018-09-14T01:56:21.118Z,33.07
2018-09-14T01:58:53.447Z,38.80
2018-09-14T02:01:25.755Z,42.53
2018-09-14T02:03:58.079Z,33.47
2018-09-14T02:06:30.383Z,33.37
2018-09-14T02:09:02.732Z,31.60
2018-09-14T02:11:35.028Z,30.67
2018-09-14T02:14:07.352Z,37.03
2018-09-14T02:16:39.652Z,33.33
2018-09-14T02:19:11.972Z,33.37
2018-09-14T02:21:44.291Z,31.57
2018-09-14T02:24:16.620Z,39.23
2018-09-14T02:26:48.919Z,34.50
2018-09-14T02:29:21.238Z,34.30
2018-09-14T02:31:53.559Z,32.30
2018-09-14T02:34:25.878Z,36.67
2018-09-14T02:36:58.175Z,36.87
2018-09-14T02:39:30.496Z,35.77
2018-09-14T02:42:02.804Z,36.80
2018-09-14T02:44:35.120Z,35.50
2018-09-14T02:47:07.427Z,36.20
2018-09-14T02:49:39.741Z,31.67
2018-09-14T02:52:12.043Z,29.87
2018-09-14T02:54:44.351Z,35.80
2018-09-14T02:57:17.603Z,32.47
2018-09-14T02:59:49.923Z,33.40
2018-09-14T03:02:22.232Z,33.93
2018-09-14T03:04:54.565Z,32.33
2018-09-14T03:07:26.861Z,32.30
2018-09-14T03:09:59.190Z,35.10
2018-09-14T03:12:31.528Z,37.97
2018-09-14T03:15:03.949Z,44.17
2018-09-14T03:17:36.251Z,37.17
2018-09-14T03:20:08.559Z,36.27
2018-09-14T03:22:40.879Z,34.57
2018-09-14T03:25:13.201Z,37.47
2018-09-14T03:27:45.507Z,40.87
2018-09-14T03:30:17.824Z,39.43
2018-09-14T03:32:50.132Z,41.37
2018-09-14T03:35:22.451Z,42.30
2018-09-14T03:37:54.796Z,41.03
2018-09-14T03:40:27.127Z,41.73
2018-09-14T03:42:59.433Z,38.90
2018-09-14T03:45:31.768Z,38.17
2018-09-14T03:48:04.072Z,39.67
2018-09-14T03:50:36.401Z,43.43
2018-09-14T03:53:08.704Z,42.27
2018-09-14T03:55:41.026Z,44.13
2018-09-14T03:58:13.332Z,36.90
2018-09-14T04:00:45.715Z,39.10
2018-09-14T04:03:18.016Z,39.47
2018-09-14T04:05:50.343Z,36.47
2018-09-14T04:08:22.654Z,41.43
2018-09-14T04:10:54.995Z,40.00
2018-09-14T04:13:27.320Z,38.10
2018-09-14T04:15:59.636Z,38.97
2018-09-14T04:18:31.956Z,50.90
2018-09-14T04:21:04.279Z,43.40
2018-09-14T04:23:36.662Z,38.03
2018-09-14T04:26:08.963Z,38.43
2018-09-14T04:28:41.307Z,35.43
2018-09-14T04:31:13.661Z,40.50
2018-09-14T04:33:45.951Z,40.90
2018-09-14T04:36:18.266Z,37.40
2018-09-14T04:38:51.408Z,36.00
2018-09-14T04:41:23.761Z,40.50
2018-09-14T04:43:56.058Z,41.43
2018-09-14T04:46:28.369Z,40.40
2018-09-14T04:49:00.708Z,46.37
2018-09-14T04:51:33.087Z,43.40
2018-09-14T04:54:05.335Z,43.30
2018-09-14T04:56:37.670Z,43.17
2018-09-14T04:59:10.024Z,43.27
2018-09-14T05:01:42.428Z,40.93
2018-09-14T05:04:14.800Z,45.60
2018-09-14T05:06:47.095Z,50.87
2018-09-14T05:09:19.415Z,48.90
2018-09-14T05:11:51.733Z,47.50
2018-09-14T05:14:24.048Z,42.03
2018-09-14T05:16:56.372Z,49.83
2018-09-14T05:19:28.721Z,42.90
2018-09-14T05:22:01.011Z,46.73
2018-09-14T05:24:33.446Z,45.97
2018-09-14T05:27:05.746Z,50.90
2018-09-14T05:29:38.063Z,45.47
2018-09-14T05:32:10.388Z,47.33
2018-09-14T05:34:42.727Z,46.40
2018-09-14T05:37:15.031Z,46.37
2018-09-14T05:39:47.360Z,51.90
2018-09-14T05:42:19.760Z,50.13
2018-09-14T05:44:52.068Z,42.80
2018-09-14T05:47:24.382Z,43.47
2018-09-14T05:49:56.713Z,41.37
2018-09-14T05:52:29.036Z,38.67
2018-09-14T05:55:01.364Z,35.90
2018-09-14T05:57:33.691Z,45.80
2018-09-14T06:00:06.033Z,41.40
2018-09-14T06:02:38.422Z,40.60
2018-09-14T06:05:10.745Z,36.83
2018-09-14T06:07:43.056Z,34.43
2018-09-14T06:10:15.368Z,33.80
2018-09-14T06:12:47.726Z,36.57
2018-09-14T06:15:20.040Z,34.67
2018-09-14T06:17:52.347Z,35.63
2018-09-14T06:20:24.683Z,30.00
2018-09-14T06:22:57.015Z,27.07
2018-09-14T06:25:29.326Z,26.33
2018-09-14T06:28:01.639Z,23.67
2018-09-14T06:30:33.974Z,23.40
2018-09-14T06:33:06.288Z,23.30
2018-09-14T06:35:38.696Z,19.23
2018-09-14T06:38:11.040Z,20.50
2018-09-14T06:40:43.351Z,21.47
2018-09-14T06:43:15.660Z,19.80
2018-09-14T06:45:48.024Z,16.67
2018-09-14T06:48:20.395Z,20.50
2018-09-14T06:50:52.715Z,23.63
2018-09-14T06:53:25.145Z,26.13
2018-09-14T06:55:57.360Z,20.57
2018-09-14T06:58:29.679Z,19.03
2018-09-14T07:01:02.012Z,23.97
2018-09-14T07:03:34.340Z,20.43
2018-09-14T07:06:06.663Z,20.90
2018-09-14T07:08:38.988Z,27.70
2018-09-14T07:11:11.303Z,21.67
2018-09-14T07:13:43.668Z,20.80
2018-09-14T07:16:15.972Z,20.13
2018-09-14T07:18:48.275Z,22.73
2018-09-14T07:21:20.604Z,23.77
2018-09-14T07:23:52.982Z,24.00
2018-09-14T07:26:25.300Z,33.37
2018-09-14T07:28:57.683Z,28.00
2018-09-14T07:31:29.987Z,23.67
2018-09-14T07:34:02.365Z,26.70
2018-09-14T07:36:34.698Z,26.93
2018-09-14T07:39:07.831Z,25.47
2018-09-14T07:41:40.164Z,26.47
2018-09-14T07:44:12.487Z,25.23
2018-09-14T07:46:44.809Z,22.60
2018-09-14T07:52:06.244Z,27.47
2018-09-14T07:54:38.564Z,29.93
2018-09-14T07:57:10.914Z,24.67
2018-09-14T07:59:43.283Z,26.57
2018-09-14T08:02:15.618Z,30.43
2018-09-14T08:04:47.949Z,27.77
2018-09-14T08:07:20.648Z,33.63
2018-09-14T08:09:52.975Z,27.83
2018-09-14T08:12:25.296Z,27.17
2018-09-14T08:14:57.634Z,28.97
2018-09-14T08:17:30.061Z,25.90
2018-09-14T08:20:02.425Z,26.57
2018-09-14T08:22:34.733Z,24.70
2018-09-14T08:25:07.053Z,28.20
2018-09-14T08:27:39.380Z,26.20
2018-09-14T08:30:11.700Z,25.87
2018-09-14T08:32:44.028Z,24.90
2018-09-14T08:35:16.343Z,30.80
2018-09-14T08:37:48.696Z,27.50
2018-09-14T08:40:20.995Z,30.93
2018-09-14T08:42:53.319Z,23.93
2018-09-14T08:45:25.643Z,21.43
2018-09-14T08:47:58.022Z,28.17
2018-09-14T08:50:30.303Z,25.10
2018-09-14T08:53:02.628Z,28.73
2018-09-14T08:55:35.050Z,26.33
2018-09-14T08:58:07.374Z,29.03
2018-09-14T09:00:39.724Z,29.60
2018-09-14T09:03:12.160Z,26.63
2018-09-14T09:05:44.643Z,26.93
2018-09-14T09:08:16.953Z,34.00
2018-09-14T09:10:49.264Z,32.70
2018-09-14T09:13:21.589Z,31.27
2018-09-14T09:15:53.904Z,36.20
2018-09-14T09:18:26.245Z,34.13
2018-09-14T09:20:58.567Z,27.43
2018-09-14T09:23:31.468Z,38.23
2018-09-14T09:26:03.711Z,35.63
2018-09-14T09:28:36.028Z,39.00
2018-09-14T09:31:08.349Z,33.40
2018-09-14T09:33:40.671Z,30.73
2018-09-14T09:36:13.295Z,34.47
2018-09-14T09:38:45.629Z,35.30
2018-09-14T09:41:17.944Z,33.53
2018-09-14T09:43:50.325Z,36.57
2018-09-14T09:46:22.592Z,34.53
2018-09-14T09:48:54.914Z,37.70
2018-09-14T09:51:27.345Z,40.30
2018-09-14T09:53:59.664Z,36.67
2018-09-14T09:56:31.983Z,35.23
2018-09-14T09:59:04.299Z,34.10
2018-09-14T10:01:36.624Z,35.57
2018-09-14T10:04:09.091Z,32.27
2018-09-14T10:06:41.367Z,32.93
2018-09-14T10:09:13.688Z,38.90
2018-09-14T10:11:46.028Z,39.43
2018-09-14T10:14:18.352Z,39.70
2018-09-14T10:16:50.673Z,38.73
2018-09-14T10:19:23.009Z,32.67
2018-09-14T10:21:55.299Z,40.60
2018-09-14T10:24:27.644Z,34.70
2018-09-14T10:27:00.343Z,25.50
2018-09-14T10:29:33.332Z,28.83
2018-09-14T10:32:05.812Z,30.97
2018-09-14T10:34:38.114Z,26.63
2018-09-14T10:37:10.509Z,24.47
2018-09-14T10:39:42.854Z,17.30
2018-09-14T10:42:15.168Z,18.87
2018-09-14T10:44:48.294Z,19.93
2018-09-14T10:47:20.928Z,16.83
2018-09-14T10:49:53.993Z,21.13
2018-09-14T10:52:27.147Z,15.47
2018-09-14T10:54:59.800Z,17.00
2018-09-14T10:57:32.131Z,14.43
2018-09-14T11:00:04.548Z,21.93
2018-09-14T11:02:36.859Z,20.77
2018-09-14T11:05:09.191Z,17.97
2018-09-14T11:07:41.513Z,19.17
2018-09-14T11:10:14.048Z,17.70
2018-09-14T11:12:46.480Z,20.07
2018-09-14T11:15:18.895Z,21.60
2018-09-14T11:17:51.211Z,16.13
2018-09-14T11:20:23.518Z,16.13
2018-09-14T11:22:55.959Z,12.17
2018-09-14T11:25:28.291Z,14.40
2018-09-14T11:28:00.692Z,15.97
2018-09-14T11:30:32.907Z,12.57
2018-09-14T11:33:05.278Z,15.93
2018-09-14T11:35:37.607Z,13.47
2018-09-14T11:38:09.934Z,16.30
2018-09-14T11:40:42.239Z,15.33
2018-09-14T11:43:14.887Z,14.47
2018-09-14T11:45:47.196Z,13.13
2018-09-14T11:48:19.543Z,14.03
2018-09-14T11:50:51.874Z,12.87
2018-09-14T11:53:24.229Z,10.07
2018-09-14T11:55:56.559Z,11.47
2018-09-14T11:58:28.888Z,14.77
2018-09-14T12:01:01.221Z,11.10
2018-09-14T12:03:33.532Z,12.77
2018-09-14T12:06:05.844Z,9.87
2018-09-14T12:08:38.155Z,17.07
2018-09-14T12:11:10.468Z,9.13
2018-09-14T12:13:42.843Z,10.27
2018-09-14T12:16:15.108Z,10.07
2018-09-14T12:18:47.440Z,8.17
2018-09-14T12:21:19.847Z,11.00
2018-09-14T12:23:52.177Z,12.17
2018-09-14T12:26:24.479Z,9.83
2018-09-14T12:28:56.804Z,13.00
2018-09-14T12:31:29.190Z,10.77
2018-09-14T12:34:01.760Z,12.43
2018-09-14T12:36:34.076Z,12.20
2018-09-14T12:39:07.647Z,8.00
2018-09-14T12:41:40.006Z,10.63
2018-09-14T12:44:12.291Z,6.70
2018-09-14T12:46:44.647Z,8.13
2018-09-14T12:49:16.947Z,13.80
2018-09-14T12:51:49.288Z,9.93
2018-09-14T12:54:21.633Z,9.50
2018-09-14T12:56:53.931Z,12.53
2018-09-14T12:59:26.300Z,12.23
2018-09-14T13:01:58.911Z,9.20
2018-09-14T13:04:31.231Z,9.57
2018-09-14T13:07:03.572Z,11.33
2018-09-14T13:09:36.196Z,12.57
2018-09-14T13:12:08.509Z,7.30
2018-09-14T13:14:40.898Z,8.97
2018-09-14T13:17:13.156Z,8.70
2018-09-14T13:19:45.469Z,10.73
2018-09-14T13:22:17.775Z,11.00
2018-09-14T13:24:50.091Z,7.43
2018-09-14T13:27:22.406Z,9.67
2018-09-14T13:29:54.765Z,7.43
2018-09-14T13:32:27.368Z,7.53
2018-09-14T13:34:59.687Z,9.53
2018-09-14T13:37:32.009Z,10.93
2018-09-14T13:40:04.352Z,9.37
2018-09-14T13:42:36.660Z,12.30
2018-09-14T13:45:09.555Z,9.40
2018-09-14T13:47:41.978Z,9.33
2018-09-14T13:50:14.280Z,13.43
2018-09-14T13:52:46.654Z,8.47
2018-09-14T13:55:18.916Z,10.70
2018-09-14T13:57:51.240Z,10.27
2018-09-14T14:00:23.620Z,9.30
2018-09-14T14:02:55.932Z,9.73
2018-09-14T14:05:28.266Z,9.50
2018-09-14T14:08:00.571Z,11.97
2018-09-14T14:10:32.892Z,12.50
2018-09-14T14:13:05.279Z,9.63
2018-09-14T14:15:37.592Z,11.40
2018-09-14T14:18:09.887Z,13.23
2018-09-14T14:20:42.204Z,7.43
2018-09-14T14:23:14.568Z,7.40
2018-09-14T14:25:46.843Z,10.93
2018-09-14T14:28:19.160Z,7.13
2018-09-14T14:30:51.777Z,5.73
2018-09-14T14:33:24.079Z,12.20
2018-09-14T14:35:56.405Z,11.30
2018-09-14T14:38:28.734Z,7.90
2018-09-14T14:41:01.056Z,6.87
2018-09-14T14:43:33.432Z,7.57
2018-09-14T14:46:05.740Z,4.93
2018-09-14T14:48:39.076Z,6.00
2018-09-14T14:51:11.388Z,7.23
2018-09-14T14:53:43.692Z,7.77
2018-09-14T14:56:16.020Z,10.03
2018-09-14T14:58:48.323Z,12.57
2018-09-14T15:01:20.993Z,6.20
2018-09-14T15:03:53.326Z,10.43
2018-09-14T15:06:25.603Z,7.53
2018-09-14T15:08:57.903Z,12.10
2018-09-14T15:11:30.228Z,8.17
2018-09-14T15:14:02.504Z,6.50
2018-09-14T15:16:34.783Z,8.73
2018-09-14T15:19:07.095Z,7.63
2018-09-14T15:21:39.612Z,7.87
2018-09-14T15:24:11.912Z,5.83
2018-09-14T15:26:44.229Z,5.43
2018-09-14T15:29:16.529Z,7.23
2018-09-14T15:31:48.819Z,5.07
2018-09-14T15:34:21.123Z,7.77
2018-09-14T15:36:53.438Z,7.70
2018-09-14T15:39:25.751Z,9.87
2018-09-14T15:41:58.083Z,11.13
2018-09-14T15:44:30.364Z,5.33
2018-09-14T15:47:02.699Z,5.70
2018-09-14T15:49:34.993Z,7.47
2018-09-14T15:52:07.308Z,7.57
2018-09-14T15:54:39.596Z,6.50
2018-09-14T15:57:11.913Z,7.33
2018-09-14T15:59:44.251Z,8.53
2018-09-14T16:02:16.566Z,7.60
2018-09-14T16:04:48.924Z,7.47
2018-09-14T16:07:23.812Z,5.90
2018-09-14T16:09:57.114Z,10.07
2018-09-14T16:12:29.508Z,6.43
2018-09-14T16:15:01.828Z,11.43
2018-09-14T16:17:34.131Z,8.43
2018-09-14T16:20:06.537Z,14.67
2018-09-14T16:22:38.848Z,6.17
2018-09-14T16:25:11.156Z,6.87
2018-09-14T16:27:43.459Z,7.07
2018-09-14T16:30:15.782Z,6.90
2018-09-14T16:32:48.098Z,9.50
2018-09-14T16:35:20.395Z,7.43
2018-09-14T16:37:52.712Z,9.10
2018-09-14T16:40:25.087Z,8.63
2018-09-14T16:42:57.372Z,8.43
2018-09-14T16:45:29.721Z,10.57
2018-09-14T16:48:02.050Z,8.67
2018-09-14T16:50:34.328Z,8.07
2018-09-14T16:53:06.635Z,9.00
2018-09-14T16:55:38.940Z,8.57
2018-09-14T16:58:11.248Z,6.70
2018-09-14T17:00:43.843Z,8.13
2018-09-14T17:03:16.148Z,10.07
2018-09-14T17:05:48.455Z,6.77
2018-09-14T17:08:20.759Z,8.83
2018-09-14T17:10:53.059Z,9.37
2018-09-14T17:13:25.368Z,9.00
2018-09-14T17:15:57.661Z,6.97
2018-09-14T17:18:29.975Z,7.17
2018-09-14T17:21:02.283Z,8.77
2018-09-14T17:23:34.588Z,6.53
2018-09-14T17:26:06.881Z,7.03
2018-09-14T17:28:39.236Z,3.70
2018-09-14T17:31:11.593Z,6.37
2018-09-14T17:33:43.888Z,4.20
2018-09-14T17:36:16.448Z,5.90
2018-09-14T17:38:48.736Z,5.83
2018-09-14T17:41:21.280Z,6.93
2018-09-14T17:43:53.659Z,5.50
2018-09-14T17:46:25.943Z,5.20
2018-09-14T17:48:58.250Z,10.97
2018-09-14T17:51:30.565Z,6.77
2018-09-14T17:54:02.855Z,6.63
2018-09-14T17:56:35.172Z,7.27
2018-09-14T17:59:07.465Z,14.97
2018-09-14T18:01:39.849Z,4.83
2018-09-14T18:04:12.157Z,5.77
2018-09-14T18:06:44.456Z,5.83
2018-09-14T18:09:16.850Z,7.57
2018-09-14T18:11:49.144Z,4.60
2018-09-14T18:14:21.427Z,4.83
2018-09-14T18:16:53.755Z,4.80
2018-09-14T18:19:26.051Z,9.20
2018-09-14T18:21:58.368Z,10.00
2018-09-14T18:24:30.660Z,9.60
2018-09-14T18:27:02.970Z,10.07
2018-09-14T18:29:35.351Z,9.07
2018-09-14T18:32:07.666Z,7.17
2018-09-14T18:34:39.959Z,9.17
2018-09-14T18:37:12.260Z,7.83
2018-09-14T18:39:44.800Z,7.90
2018-09-14T18:42:17.103Z,5.97
2018-09-14T18:44:49.407Z,10.20
2018-09-14T18:47:21.817Z,7.23
2018-09-14T18:49:54.108Z,11.50
2018-09-14T18:52:27.119Z,5.10
2018-09-14T18:54:59.411Z,6.77
2018-09-14T18:57:31.726Z,8.70
2018-09-14T19:00:04.151Z,5.40
2018-09-14T19:02:36.479Z,4.73
2018-09-14T19:05:08.800Z,5.73
2018-09-14T19:07:41.116Z,7.30
2018-09-14T19:10:13.416Z,6.70
2018-09-14T19:12:45.809Z,4.53
2018-09-14T19:15:18.215Z,7.47
2018-09-14T19:17:50.514Z,8.07
2018-09-14T19:20:22.818Z,8.40
2018-09-14T19:22:55.148Z,13.50
2018-09-14T19:25:27.451Z,8.83
2018-09-14T19:28:00.089Z,6.93
2018-09-14T19:30:32.412Z,10.83
2018-09-14T19:33:04.780Z,9.13
2018-09-14T19:35:37.100Z,7.80
2018-09-14T19:38:09.439Z,6.87
2018-09-14T19:40:41.756Z,10.07
2018-09-14T19:43:14.095Z,9.33
2018-09-14T19:45:46.707Z,9.27
2018-09-14T19:48:19.061Z,10.50
2018-09-14T19:50:51.360Z,16.73
2018-09-14T19:53:23.672Z,10.63
2018-09-14T19:55:55.995Z,14.33
2018-09-14T19:58:28.321Z,12.63
2018-09-14T20:01:00.628Z,12.47
2018-09-14T20:03:32.947Z,10.63
2018-09-14T20:06:05.302Z,9.13
2018-09-14T20:08:38.787Z,13.17
2018-09-14T20:11:11.085Z,9.73
2018-09-14T20:13:43.396Z,11.57
2018-09-14T20:16:15.717Z,11.13
2018-09-14T20:18:48.332Z,7.87
2018-09-14T20:21:20.639Z,11.43
2018-09-14T20:23:53.264Z,10.97
2018-09-14T20:26:25.568Z,8.83
2018-09-14T20:28:58.215Z,8.60
2018-09-14T20:31:30.533Z,7.30
2018-09-14T20:34:02.861Z,11.10
2018-09-14T20:36:35.167Z,9.77
2018-09-14T20:39:08.420Z,10.30
2018-09-14T20:41:40.789Z,9.27
2018-09-14T20:44:13.098Z,13.57
2018-09-14T20:46:45.414Z,8.67
2018-09-14T20:49:17.803Z,9.30
2018-09-14T20:51:50.104Z,10.27
2018-09-14T20:54:22.412Z,7.30
2018-09-14T20:56:54.726Z,10.33
2018-09-14T20:59:27.332Z,10.13
2018-09-14T21:01:59.731Z,18.00
2018-09-14T21:04:32.641Z,10.87
2018-09-14T21:07:05.061Z,10.47
2018-09-14T21:09:37.657Z,9.27
2018-09-14T21:12:10.264Z,12.03
2018-09-14T21:14:42.902Z,15.27
2018-09-14T21:17:15.456Z,8.37
2018-09-14T21:19:47.772Z,8.90
2018-09-14T21:22:20.081Z,9.40
2018-09-14T21:24:52.395Z,8.10
2018-09-14T21:27:24.707Z,10.73
2018-09-14T21:29:57.024Z,9.67
2018-09-14T21:32:29.347Z,12.17
2018-09-14T21:35:01.659Z,9.93
2018-09-14T21:37:33.991Z,8.63
2018-09-14T21:40:06.321Z,11.23
2018-09-14T21:42:38.933Z,12.97
2018-09-14T21:45:11.250Z,10.97
2018-09-14T21:47:43.559Z,9.27
2018-09-14T21:50:16.259Z,11.53
2018-09-14T21:52:48.567Z,13.20
2018-09-14T21:55:20.883Z,11.07
2018-09-14T21:57:53.476Z,10.67
2018-09-14T22:00:25.823Z,12.83
2018-09-14T22:02:58.130Z,11.73
2018-09-14T22:05:30.461Z,10.57
2018-09-14T22:08:02.771Z,15.47
2018-09-14T22:10:35.095Z,15.73
2018-09-14T22:13:07.407Z,15.00
2018-09-14T22:15:39.744Z,9.07
2018-09-14T22:18:12.055Z,10.77
2018-09-14T22:20:44.381Z,15.73
2018-09-14T22:23:16.675Z,9.13
2018-09-14T22:25:49.249Z,12.27
2018-09-14T22:28:21.868Z,9.97
2018-09-14T22:30:54.180Z,8.97
2018-09-14T22:33:26.505Z,10.13
2018-09-14T22:35:58.841Z,10.53
2018-09-14T22:38:31.144Z,8.70
2018-09-14T22:41:03.484Z,6.50
2018-09-14T22:43:35.796Z,10.47
2018-09-14T22:46:08.228Z,11.20
2018-09-14T22:48:40.798Z,10.17
2018-09-14T22:51:13.163Z,7.63
2018-09-14T22:53:45.463Z,11.43
2018-09-14T22:56:17.783Z,7.60
2018-09-14T22:58:50.383Z,14.00
2018-09-14T23:01:22.707Z,7.57
2018-09-14T23:03:55.332Z,7.63
2018-09-14T23:06:27.631Z,9.47
2018-09-14T23:08:59.932Z,6.43
2018-09-14T23:11:32.243Z,7.50
2018-09-14T23:14:04.848Z,8.83
2018-09-14T23:16:37.147Z,8.73
2018-09-14T23:19:09.799Z,7.90
2018-09-14T23:21:42.114Z,13.67
2018-09-14T23:24:14.403Z,8.70
2018-09-14T23:26:46.707Z,11.40
2018-09-14T23:29:19.019Z,7.30
2018-09-14T23:31:51.320Z,8.97
2018-09-14T23:34:23.619Z,6.87
2018-09-14T23:36:56.163Z,6.73
2018-09-14T23:39:28.456Z,8.80
2018-09-14T23:42:00.755Z,7.53
2018-09-14T23:44:33.047Z,11.73
2018-09-14T23:47:05.348Z,7.80
2018-09-14T23:49:37.644Z,8.50
2018-09-14T23:52:09.986Z,9.03
2018-09-14T23:54:42.563Z,9.63
2018-09-14T23:57:14.880Z,9.13
2018-09-14T23:59:47.212Z,9.40
